sensor_id;sensor_type;location;lat;lon;timestamp;temperature;humidity
68387;DHT22;55338;43.062;25.624;2023-04-25T00:01:23;13.20;99.90
68387;DHT22;55338;43.062;25.624;2023-04-25T00:03:49;13.30;99.90
68387;DHT22;55338;43.062;25.624;2023-04-25T00:06:16;13.30;99.90
68387;DHT22;55338;43.062;25.624;2023-04-25T00:08:43;13.20;99.90
68387;DHT22;55338;43.062;25.624;2023-04-25T00:11:09;13.10;99.90
68387;DHT22;55338;43.062;25.624;2023-04-25T00:13:34;13.10;99.90
68387;DHT22;55338;43.062;25.624;2023-04-25T00:16:00;13.10;99.90
68387;DHT22;55338;43.062;25.624;2023-04-25T00:18:27;13.10;99.90
68387;DHT22;55338;43.062;25.624;2023-04-25T00:20:55;13.00;99.90
68387;DHT22;55338;43.062;25.624;2023-04-25T00:23:21;13.00;99.90
68387;DHT22;55338;43.062;25.624;2023-04-25T00:25:48;12.90;99.90
68387;DHT22;55338;43.062;25.624;2023-04-25T00:28:15;13.00;99.90
68387;DHT22;55338;43.062;25.624;2023-04-25T00:30:41;13.00;99.90
68387;DHT22;55338;43.062;25.624;2023-04-25T00:33:08;13.00;99.90
68387;DHT22;55338;43.062;25.624;2023-04-25T00:35:34;13.00;99.90
68387;DHT22;55338;43.062;25.624;2023-04-25T00:38:00;13.00;99.90
68387;DHT22;55338;43.062;25.624;2023-04-25T00:40:26;13.00;99.90
68387;DHT22;55338;43.062;25.624;2023-04-25T00:42:53;12.90;99.90
68387;DHT22;55338;43.062;25.624;2023-04-25T00:45:19;12.80;99.90
68387;DHT22;55338;43.062;25.624;2023-04-25T00:47:46;12.90;99.90
68387;DHT22;55338;43.062;25.624;2023-04-25T00:50:13;12.80;99.90
68387;DHT22;55338;43.062;25.624;2023-04-25T00:52:40;12.80;99.90
68387;DHT22;55338;43.062;25.624;2023-04-25T00:55:07;12.80;99.90
68387;DHT22;55338;43.062;25.624;2023-04-25T00:57:34;12.80;99.90
68387;DHT22;55338;43.062;25.624;2023-04-25T01:00:00;12.80;99.90
68387;DHT22;55338;43.062;25.624;2023-04-25T01:02:26;12.80;99.90
68387;DHT22;55338;43.062;25.624;2023-04-25T01:04:52;12.80;99.90
68387;DHT22;55338;43.062;25.624;2023-04-25T01:07:18;12.80;99.90
68387;DHT22;55338;43.062;25.624;2023-04-25T01:09:44;12.80;99.90
68387;DHT22;55338;43.062;25.624;2023-04-25T01:12:10;12.80;99.90
68387;DHT22;55338;43.062;25.624;2023-04-25T01:14:36;12.70;99.90
68387;DHT22;55338;43.062;25.624;2023-04-25T01:17:02;12.70;99.90
68387;DHT22;55338;43.062;25.624;2023-04-25T01:19:28;12.70;99.90
68387;DHT22;55338;43.062;25.624;2023-04-25T01:21:55;12.70;99.90
68387;DHT22;55338;43.062;25.624;2023-04-25T01:24:21;12.70;99.90
68387;DHT22;55338;43.062;25.624;2023-04-25T01:26:47;12.70;99.90
68387;DHT22;55338;43.062;25.624;2023-04-25T01:29:17;12.70;99.90
68387;DHT22;55338;43.062;25.624;2023-04-25T01:31:43;12.70;99.90
68387;DHT22;55338;43.062;25.624;2023-04-25T01:34:10;12.70;99.90
68387;DHT22;55338;43.062;25.624;2023-04-25T01:36:36;12.60;99.90
68387;DHT22;55338;43.062;25.624;2023-04-25T01:39:02;12.60;99.90
68387;DHT22;55338;43.062;25.624;2023-04-25T01:41:28;12.60;99.90
68387;DHT22;55338;43.062;25.624;2023-04-25T01:43:54;12.60;99.90
68387;DHT22;55338;43.062;25.624;2023-04-25T01:46:20;12.60;99.90
68387;DHT22;55338;43.062;25.624;2023-04-25T01:48:46;12.50;99.90
68387;DHT22;55338;43.062;25.624;2023-04-25T01:51:13;12.60;99.90
68387;DHT22;55338;43.062;25.624;2023-04-25T01:53:39;12.60;99.90
68387;DHT22;55338;43.062;25.624;2023-04-25T01:56:05;12.60;99.90
68387;DHT22;55338;43.062;25.624;2023-04-25T01:58:31;12.60;99.90
68387;DHT22;55338;43.062;25.624;2023-04-25T02:00:57;12.60;99.90
68387;DHT22;55338;43.062;25.624;2023-04-25T02:03:23;12.60;99.90
68387;DHT22;55338;43.062;25.624;2023-04-25T02:05:48;12.50;99.90
68387;DHT22;55338;43.062;25.624;2023-04-25T02:08:16;12.50;99.90
68387;DHT22;55338;43.062;25.624;2023-04-25T02:10:42;12.50;99.90
68387;DHT22;55338;43.062;25.624;2023-04-25T02:13:08;12.50;99.90
68387;DHT22;55338;43.062;25.624;2023-04-25T02:15:34;12.40;99.90
68387;DHT22;55338;43.062;25.624;2023-04-25T02:18:00;12.40;99.90
68387;DHT22;55338;43.062;25.624;2023-04-25T02:20:28;12.40;99.90
68387;DHT22;55338;43.062;25.624;2023-04-25T02:22:54;12.40;99.90
68387;DHT22;55338;43.062;25.624;2023-04-25T02:25:20;12.40;99.90
68387;DHT22;55338;43.062;25.624;2023-04-25T02:27:49;12.40;99.90
68387;DHT22;55338;43.062;25.624;2023-04-25T02:30:15;12.30;99.90
68387;DHT22;55338;43.062;25.624;2023-04-25T02:32:41;12.40;99.90
68387;DHT22;55338;43.062;25.624;2023-04-25T02:35:07;12.40;99.90
68387;DHT22;55338;43.062;25.624;2023-04-25T02:37:34;12.30;99.90
68387;DHT22;55338;43.062;25.624;2023-04-25T02:40:01;12.30;99.90
68387;DHT22;55338;43.062;25.624;2023-04-25T02:42:27;12.30;99.90
68387;DHT22;55338;43.062;25.624;2023-04-25T02:44:53;12.30;99.90
68387;DHT22;55338;43.062;25.624;2023-04-25T02:47:19;12.30;99.90
68387;DHT22;55338;43.062;25.624;2023-04-25T02:49:45;12.30;99.90
68387;DHT22;55338;43.062;25.624;2023-04-25T02:52:11;12.30;99.90
68387;DHT22;55338;43.062;25.624;2023-04-25T02:54:38;12.30;99.90
68387;DHT22;55338;43.062;25.624;2023-04-25T02:57:04;12.30;99.90
68387;DHT22;55338;43.062;25.624;2023-04-25T02:59:30;12.30;99.90
68387;DHT22;55338;43.062;25.624;2023-04-25T03:01:55;12.30;99.90
68387;DHT22;55338;43.062;25.624;2023-04-25T03:04:21;12.30;99.90
68387;DHT22;55338;43.062;25.624;2023-04-25T03:06:52;12.30;99.90
68387;DHT22;55338;43.062;25.624;2023-04-25T03:09:19;12.30;99.90
68387;DHT22;55338;43.062;25.624;2023-04-25T03:11:45;12.30;99.90
68387;DHT22;55338;43.062;25.624;2023-04-25T03:14:12;12.20;99.90
68387;DHT22;55338;43.062;25.624;2023-04-25T03:16:38;12.20;99.90
68387;DHT22;55338;43.062;25.624;2023-04-25T03:19:04;12.20;99.90
68387;DHT22;55338;43.062;25.624;2023-04-25T03:21:34;12.20;99.90
68387;DHT22;55338;43.062;25.624;2023-04-25T03:24:01;12.20;99.90
68387;DHT22;55338;43.062;25.624;2023-04-25T03:26:28;12.20;99.90
68387;DHT22;55338;43.062;25.624;2023-04-25T03:28:53;12.20;99.90
68387;DHT22;55338;43.062;25.624;2023-04-25T03:31:19;12.10;99.90
68387;DHT22;55338;43.062;25.624;2023-04-25T03:33:45;12.10;99.90
68387;DHT22;55338;43.062;25.624;2023-04-25T03:36:11;12.10;99.90
68387;DHT22;55338;43.062;25.624;2023-04-25T03:38:36;12.10;99.90
68387;DHT22;55338;43.062;25.624;2023-04-25T03:41:02;12.20;99.90
68387;DHT22;55338;43.062;25.624;2023-04-25T03:43:28;12.20;99.90
68387;DHT22;55338;43.062;25.624;2023-04-25T03:45:54;12.30;99.90
68387;DHT22;55338;43.062;25.624;2023-04-25T03:48:20;12.30;99.90
68387;DHT22;55338;43.062;25.624;2023-04-25T03:50:50;12.30;99.90
68387;DHT22;55338;43.062;25.624;2023-04-25T03:53:16;12.30;99.90
68387;DHT22;55338;43.062;25.624;2023-04-25T03:55:41;12.30;99.90
68387;DHT22;55338;43.062;25.624;2023-04-25T03:58:07;12.30;99.90
68387;DHT22;55338;43.062;25.624;2023-04-25T04:00:34;12.30;99.90
68387;DHT22;55338;43.062;25.624;2023-04-25T04:03:00;12.30;99.90
68387;DHT22;55338;43.062;25.624;2023-04-25T04:05:26;12.40;99.90
68387;DHT22;55338;43.062;25.624;2023-04-25T04:07:53;12.40;99.90
68387;DHT22;55338;43.062;25.624;2023-04-25T04:10:18;12.40;99.90
68387;DHT22;55338;43.062;25.624;2023-04-25T04:12:44;12.40;99.90
68387;DHT22;55338;43.062;25.624;2023-04-25T04:15:10;12.50;99.90
68387;DHT22;55338;43.062;25.624;2023-04-25T04:17:36;12.50;99.90
68387;DHT22;55338;43.062;25.624;2023-04-25T04:20:02;12.50;99.90
68387;DHT22;55338;43.062;25.624;2023-04-25T04:22:29;12.60;99.90
68387;DHT22;55338;43.062;25.624;2023-04-25T04:24:54;12.70;99.90
68387;DHT22;55338;43.062;25.624;2023-04-25T04:27:22;12.60;99.90
68387;DHT22;55338;43.062;25.624;2023-04-25T04:29:49;12.60;99.90
68387;DHT22;55338;43.062;25.624;2023-04-25T04:32:16;12.60;99.90
68387;DHT22;55338;43.062;25.624;2023-04-25T04:34:43;12.70;99.90
68387;DHT22;55338;43.062;25.624;2023-04-25T04:37:08;12.70;99.90
68387;DHT22;55338;43.062;25.624;2023-04-25T04:39:35;12.80;99.90
68387;DHT22;55338;43.062;25.624;2023-04-25T04:42:01;12.80;99.90
68387;DHT22;55338;43.062;25.624;2023-04-25T04:44:29;12.90;99.90
68387;DHT22;55338;43.062;25.624;2023-04-25T04:46:58;12.90;99.90
68387;DHT22;55338;43.062;25.624;2023-04-25T04:49:24;12.90;99.90
68387;DHT22;55338;43.062;25.624;2023-04-25T04:51:50;13.00;99.90
68387;DHT22;55338;43.062;25.624;2023-04-25T04:54:16;13.00;99.90
68387;DHT22;55338;43.062;25.624;2023-04-25T04:56:42;13.00;99.90
68387;DHT22;55338;43.062;25.624;2023-04-25T04:59:07;13.10;99.90
68387;DHT22;55338;43.062;25.624;2023-04-25T05:01:33;13.10;99.90
68387;DHT22;55338;43.062;25.624;2023-04-25T05:04:02;13.20;99.90
68387;DHT22;55338;43.062;25.624;2023-04-25T05:06:29;13.20;99.90
68387;DHT22;55338;43.062;25.624;2023-04-25T05:08:56;13.30;99.90
68387;DHT22;55338;43.062;25.624;2023-04-25T05:11:23;13.40;99.90
68387;DHT22;55338;43.062;25.624;2023-04-25T05:13:52;13.50;99.90
68387;DHT22;55338;43.062;25.624;2023-04-25T05:16:19;13.60;99.90
68387;DHT22;55338;43.062;25.624;2023-04-25T05:18:46;13.70;99.90
68387;DHT22;55338;43.062;25.624;2023-04-25T05:21:12;13.80;99.90
68387;DHT22;55338;43.062;25.624;2023-04-25T05:23:38;13.90;99.90
68387;DHT22;55338;43.062;25.624;2023-04-25T05:26:04;14.00;99.90
68387;DHT22;55338;43.062;25.624;2023-04-25T05:28:29;14.10;99.90
68387;DHT22;55338;43.062;25.624;2023-04-25T05:30:56;14.20;99.90
68387;DHT22;55338;43.062;25.624;2023-04-25T05:33:22;14.40;99.90
68387;DHT22;55338;43.062;25.624;2023-04-25T05:35:48;14.50;99.90
68387;DHT22;55338;43.062;25.624;2023-04-25T05:38:14;14.50;99.90
68387;DHT22;55338;43.062;25.624;2023-04-25T05:40:40;14.60;99.90
68387;DHT22;55338;43.062;25.624;2023-04-25T05:43:06;14.70;99.90
68387;DHT22;55338;43.062;25.624;2023-04-25T05:45:32;14.80;99.90
68387;DHT22;55338;43.062;25.624;2023-04-25T05:47:58;15.00;99.90
68387;DHT22;55338;43.062;25.624;2023-04-25T05:50:24;15.00;99.90
68387;DHT22;55338;43.062;25.624;2023-04-25T05:52:50;15.20;99.90
68387;DHT22;55338;43.062;25.624;2023-04-25T05:55:16;15.40;99.90
68387;DHT22;55338;43.062;25.624;2023-04-25T05:57:42;15.80;99.90
68387;DHT22;55338;43.062;25.624;2023-04-25T06:00:12;16.30;99.90
68387;DHT22;55338;43.062;25.624;2023-04-25T06:02:38;16.60;99.90
68387;DHT22;55338;43.062;25.624;2023-04-25T06:05:04;17.00;99.90
68387;DHT22;55338;43.062;25.624;2023-04-25T06:07:30;17.10;99.90
68387;DHT22;55338;43.062;25.624;2023-04-25T06:09:56;17.00;99.90
68387;DHT22;55338;43.062;25.624;2023-04-25T06:12:22;17.20;99.90
68387;DHT22;55338;43.062;25.624;2023-04-25T06:14:48;17.50;99.90
68387;DHT22;55338;43.062;25.624;2023-04-25T06:17:13;17.70;99.90
68387;DHT22;55338;43.062;25.624;2023-04-25T06:19:39;17.80;99.90
68387;DHT22;55338;43.062;25.624;2023-04-25T06:22:05;17.80;99.90
68387;DHT22;55338;43.062;25.624;2023-04-25T06:24:32;17.80;99.90
68387;DHT22;55338;43.062;25.624;2023-04-25T06:26:58;17.80;99.90
68387;DHT22;55338;43.062;25.624;2023-04-25T06:29:24;17.80;99.90
68387;DHT22;55338;43.062;25.624;2023-04-25T06:31:50;17.90;99.90
68387;DHT22;55338;43.062;25.624;2023-04-25T06:34:15;18.00;99.90
68387;DHT22;55338;43.062;25.624;2023-04-25T06:36:41;18.00;99.90
68387;DHT22;55338;43.062;25.624;2023-04-25T06:39:08;18.20;99.90
68387;DHT22;55338;43.062;25.624;2023-04-25T06:41:34;18.40;99.90
68387;DHT22;55338;43.062;25.624;2023-04-25T06:44:00;18.60;99.90
68387;DHT22;55338;43.062;25.624;2023-04-25T06:46:26;19.00;99.90
68387;DHT22;55338;43.062;25.624;2023-04-25T06:48:52;19.30;99.90
68387;DHT22;55338;43.062;25.624;2023-04-25T06:51:18;19.40;98.80
68387;DHT22;55338;43.062;25.624;2023-04-25T06:53:43;19.50;99.30
68387;DHT22;55338;43.062;25.624;2023-04-25T06:56:09;19.40;98.20
68387;DHT22;55338;43.062;25.624;2023-04-25T06:58:35;19.20;99.90
68387;DHT22;55338;43.062;25.624;2023-04-25T07:01:01;19.20;99.40
68387;DHT22;55338;43.062;25.624;2023-04-25T07:03:27;19.10;99.30
68387;DHT22;55338;43.062;25.624;2023-04-25T07:05:52;19.10;99.50
68387;DHT22;55338;43.062;25.624;2023-04-25T07:08:18;19.10;98.40
68387;DHT22;55338;43.062;25.624;2023-04-25T07:10:44;19.20;99.10
68387;DHT22;55338;43.062;25.624;2023-04-25T07:13:11;19.20;95.20
68387;DHT22;55338;43.062;25.624;2023-04-25T07:15:37;19.30;95.90
68387;DHT22;55338;43.062;25.624;2023-04-25T07:18:03;19.40;93.20
68387;DHT22;55338;43.062;25.624;2023-04-25T07:20:29;19.50;94.10
68387;DHT22;55338;43.062;25.624;2023-04-25T07:22:56;19.60;96.90
68387;DHT22;55338;43.062;25.624;2023-04-25T07:25:22;19.90;94.50
68387;DHT22;55338;43.062;25.624;2023-04-25T07:27:48;20.20;91.60
68387;DHT22;55338;43.062;25.624;2023-04-25T07:30:14;20.50;90.30
68387;DHT22;55338;43.062;25.624;2023-04-25T07:32:40;20.80;88.20
68387;DHT22;55338;43.062;25.624;2023-04-25T07:35:06;21.00;86.80
68387;DHT22;55338;43.062;25.624;2023-04-25T07:37:35;21.30;86.30
68387;DHT22;55338;43.062;25.624;2023-04-25T07:40:02;21.50;85.00
68387;DHT22;55338;43.062;25.624;2023-04-25T07:42:29;21.80;83.30
68387;DHT22;55338;43.062;25.624;2023-04-25T07:44:55;21.90;79.80
68387;DHT22;55338;43.062;25.624;2023-04-25T07:47:21;22.10;78.80
68387;DHT22;55338;43.062;25.624;2023-04-25T07:49:47;22.50;76.90
68387;DHT22;55338;43.062;25.624;2023-04-25T07:52:13;23.00;78.80
68387;DHT22;55338;43.062;25.624;2023-04-25T07:54:38;24.10;76.30
68387;DHT22;55338;43.062;25.624;2023-04-25T07:57:04;24.80;63.00
68387;DHT22;55338;43.062;25.624;2023-04-25T07:59:32;25.20;62.30
68387;DHT22;55338;43.062;25.624;2023-04-25T08:01:57;25.40;58.50
68387;DHT22;55338;43.062;25.624;2023-04-25T08:04:24;25.80;59.10
68387;DHT22;55338;43.062;25.624;2023-04-25T08:06:50;26.20;56.60
68387;DHT22;55338;43.062;25.624;2023-04-25T08:09:16;26.00;54.40
68387;DHT22;55338;43.062;25.624;2023-04-25T08:11:42;26.50;53.90
68387;DHT22;55338;43.062;25.624;2023-04-25T08:14:08;26.60;54.20
68387;DHT22;55338;43.062;25.624;2023-04-25T08:16:34;26.10;53.20
68387;DHT22;55338;43.062;25.624;2023-04-25T08:19:00;25.90;52.50
68387;DHT22;55338;43.062;25.624;2023-04-25T08:21:26;26.40;53.50
68387;DHT22;55338;43.062;25.624;2023-04-25T08:23:53;27.20;53.20
68387;DHT22;55338;43.062;25.624;2023-04-25T08:26:18;27.80;48.10
68387;DHT22;55338;43.062;25.624;2023-04-25T08:28:44;27.50;48.50
68387;DHT22;55338;43.062;25.624;2023-04-25T08:31:10;27.30;49.30
68387;DHT22;55338;43.062;25.624;2023-04-25T08:33:36;26.20;46.30
68387;DHT22;55338;43.062;25.624;2023-04-25T08:36:02;25.50;50.60
68387;DHT22;55338;43.062;25.624;2023-04-25T08:38:28;25.00;50.90
68387;DHT22;55338;43.062;25.624;2023-04-25T08:40:54;25.70;49.40
68387;DHT22;55338;43.062;25.624;2023-04-25T08:43:23;25.40;50.80
68387;DHT22;55338;43.062;25.624;2023-04-25T08:45:52;25.40;49.20
68387;DHT22;55338;43.062;25.624;2023-04-25T08:48:19;24.90;51.40
68387;DHT22;55338;43.062;25.624;2023-04-25T08:50:51;24.40;53.40
68387;DHT22;55338;43.062;25.624;2023-04-25T08:53:31;24.90;53.00
68387;DHT22;55338;43.062;25.624;2023-04-25T08:55:59;26.20;49.30
68387;DHT22;55338;43.062;25.624;2023-04-25T08:58:25;27.40;48.20
68387;DHT22;55338;43.062;25.624;2023-04-25T09:00:52;27.00;48.40
68387;DHT22;55338;43.062;25.624;2023-04-25T09:03:18;26.80;45.30
68387;DHT22;55338;43.062;25.624;2023-04-25T09:05:44;26.10;46.90
68387;DHT22;55338;43.062;25.624;2023-04-25T09:08:10;25.70;48.20
68387;DHT22;55338;43.062;25.624;2023-04-25T09:10:36;25.70;51.20
68387;DHT22;55338;43.062;25.624;2023-04-25T09:15:32;25.50;49.30
68387;DHT22;55338;43.062;25.624;2023-04-25T09:18:01;26.10;49.00
68387;DHT22;55338;43.062;25.624;2023-04-25T09:20:28;26.20;47.90
68387;DHT22;55338;43.062;25.624;2023-04-25T09:23:04;26.40;47.50
68387;DHT22;55338;43.062;25.624;2023-04-25T09:25:37;27.00;49.00
68387;DHT22;55338;43.062;25.624;2023-04-25T09:28:05;27.70;44.20
68387;DHT22;55338;43.062;25.624;2023-04-25T09:30:33;28.30;48.40
68387;DHT22;55338;43.062;25.624;2023-04-25T09:35:40;29.30;42.90
68387;DHT22;55338;43.062;25.624;2023-04-25T09:38:14;28.60;42.50
68387;DHT22;55338;43.062;25.624;2023-04-25T09:43:20;27.00;43.30
68387;DHT22;55338;43.062;25.624;2023-04-25T09:45:49;26.50;44.50
68387;DHT22;55338;43.062;25.624;2023-04-25T09:48:18;26.50;46.80
68387;DHT22;55338;43.062;25.624;2023-04-25T09:50:44;26.30;45.30
68387;DHT22;55338;43.062;25.624;2023-04-25T09:53:10;25.70;46.30
68387;DHT22;55338;43.062;25.624;2023-04-25T09:55:37;24.20;50.80
68387;DHT22;55338;43.062;25.624;2023-04-25T09:58:06;23.00;53.80
68387;DHT22;55338;43.062;25.624;2023-04-25T10:00:34;22.40;56.20
68387;DHT22;55338;43.062;25.624;2023-04-25T10:03:05;21.30;59.70
68387;DHT22;55338;43.062;25.624;2023-04-25T10:05:32;20.30;65.10
68387;DHT22;55338;43.062;25.624;2023-04-25T10:08:02;18.50;70.90
68387;DHT22;55338;43.062;25.624;2023-04-25T10:10:30;17.20;79.50
68387;DHT22;55338;43.062;25.624;2023-04-25T10:12:58;16.50;84.80
68387;DHT22;55338;43.062;25.624;2023-04-25T10:15:25;15.90;95.20
68387;DHT22;55338;43.062;25.624;2023-04-25T10:17:51;15.60;99.90
68387;DHT22;55338;43.062;25.624;2023-04-25T10:20:17;15.70;99.90
68387;DHT22;55338;43.062;25.624;2023-04-25T10:22:44;15.30;99.90
68387;DHT22;55338;43.062;25.624;2023-04-25T10:25:12;15.30;99.90
68387;DHT22;55338;43.062;25.624;2023-04-25T10:27:39;15.30;99.90
68387;DHT22;55338;43.062;25.624;2023-04-25T10:30:10;15.10;99.90
68387;DHT22;55338;43.062;25.624;2023-04-25T10:32:38;14.80;99.90
68387;DHT22;55338;43.062;25.624;2023-04-25T10:35:18;14.80;99.90
68387;DHT22;55338;43.062;25.624;2023-04-25T10:38:16;14.90;99.90
68387;DHT22;55338;43.062;25.624;2023-04-25T10:41:02;14.90;99.90
68387;DHT22;55338;43.062;25.624;2023-04-25T10:49:10;15.10;99.90
68387;DHT22;55338;43.062;25.624;2023-04-25T10:51:36;15.30;99.90
68387;DHT22;55338;43.062;25.624;2023-04-25T10:54:07;15.50;99.90
68387;DHT22;55338;43.062;25.624;2023-04-25T10:59:06;16.00;99.90
68387;DHT22;55338;43.062;25.624;2023-04-25T11:01:42;16.40;99.90
68387;DHT22;55338;43.062;25.624;2023-04-25T11:04:28;16.90;99.90
68387;DHT22;55338;43.062;25.624;2023-04-25T11:07:19;17.50;99.90
68387;DHT22;55338;43.062;25.624;2023-04-25T11:09:49;18.20;99.90
68387;DHT22;55338;43.062;25.624;2023-04-25T11:12:15;19.00;99.90
68387;DHT22;55338;43.062;25.624;2023-04-25T11:14:42;19.00;99.90
68387;DHT22;55338;43.062;25.624;2023-04-25T11:17:08;18.90;99.90
68387;DHT22;55338;43.062;25.624;2023-04-25T11:19:34;18.80;99.90
68387;DHT22;55338;43.062;25.624;2023-04-25T11:22:02;18.60;99.90
68387;DHT22;55338;43.062;25.624;2023-04-25T11:24:29;18.40;99.90
68387;DHT22;55338;43.062;25.624;2023-04-25T11:26:56;18.00;99.90
68387;DHT22;55338;43.062;25.624;2023-04-25T11:29:26;18.00;99.90
68387;DHT22;55338;43.062;25.624;2023-04-25T11:31:52;18.20;99.90
68387;DHT22;55338;43.062;25.624;2023-04-25T11:34:19;18.50;99.90
68387;DHT22;55338;43.062;25.624;2023-04-25T11:36:45;19.10;99.90
68387;DHT22;55338;43.062;25.624;2023-04-25T11:39:12;20.00;99.90
68387;DHT22;55338;43.062;25.624;2023-04-25T11:41:41;21.00;99.90
68387;DHT22;55338;43.062;25.624;2023-04-25T11:44:07;21.80;93.70
68387;DHT22;55338;43.062;25.624;2023-04-25T11:46:36;22.40;94.40
68387;DHT22;55338;43.062;25.624;2023-04-25T11:49:02;22.70;89.40
68387;DHT22;55338;43.062;25.624;2023-04-25T11:51:29;22.90;87.10
68387;DHT22;55338;43.062;25.624;2023-04-25T11:53:57;23.10;80.40
68387;DHT22;55338;43.062;25.624;2023-04-25T11:56:23;23.10;77.60
68387;DHT22;55338;43.062;25.624;2023-04-25T11:59:03;23.10;77.40
68387;DHT22;55338;43.062;25.624;2023-04-25T12:01:31;23.00;77.60
68387;DHT22;55338;43.062;25.624;2023-04-25T12:03:58;23.60;72.10
68387;DHT22;55338;43.062;25.624;2023-04-25T12:06:30;23.90;70.20
68387;DHT22;55338;43.062;25.624;2023-04-25T12:09:09;23.90;67.90
68387;DHT22;55338;43.062;25.624;2023-04-25T12:11:52;23.50;70.60
68387;DHT22;55338;43.062;25.624;2023-04-25T12:14:26;22.60;69.30
68387;DHT22;55338;43.062;25.624;2023-04-25T12:16:55;22.20;71.40
68387;DHT22;55338;43.062;25.624;2023-04-25T12:19:22;21.70;74.20
68387;DHT22;55338;43.062;25.624;2023-04-25T12:21:49;21.70;74.40
68387;DHT22;55338;43.062;25.624;2023-04-25T12:24:16;21.80;74.80
68387;DHT22;55338;43.062;25.624;2023-04-25T12:27:14;21.70;75.50
68387;DHT22;55338;43.062;25.624;2023-04-25T12:29:50;21.40;75.70
68387;DHT22;55338;43.062;25.624;2023-04-25T12:32:16;21.20;76.70
68387;DHT22;55338;43.062;25.624;2023-04-25T12:34:43;20.90;75.40
68387;DHT22;55338;43.062;25.624;2023-04-25T12:37:09;20.60;78.90
68387;DHT22;55338;43.062;25.624;2023-04-25T12:39:35;20.40;80.30
68387;DHT22;55338;43.062;25.624;2023-04-25T12:42:01;20.10;78.90
68387;DHT22;55338;43.062;25.624;2023-04-25T12:44:27;19.90;82.80
68387;DHT22;55338;43.062;25.624;2023-04-25T12:46:53;19.80;82.60
68387;DHT22;55338;43.062;25.624;2023-04-25T12:49:19;19.60;85.00
68387;DHT22;55338;43.062;25.624;2023-04-25T12:51:45;19.50;85.30
68387;DHT22;55338;43.062;25.624;2023-04-25T12:54:12;19.30;89.40
68387;DHT22;55338;43.062;25.624;2023-04-25T12:56:38;19.20;99.90
68387;DHT22;55338;43.062;25.624;2023-04-25T12:59:04;19.00;99.90
68387;DHT22;55338;43.062;25.624;2023-04-25T13:01:30;18.80;99.90
68387;DHT22;55338;43.062;25.624;2023-04-25T13:03:55;18.60;99.90
68387;DHT22;55338;43.062;25.624;2023-04-25T13:06:22;18.30;99.90
68387;DHT22;55338;43.062;25.624;2023-04-25T13:08:48;18.10;99.90
68387;DHT22;55338;43.062;25.624;2023-04-25T13:11:14;18.00;99.90
68387;DHT22;55338;43.062;25.624;2023-04-25T13:13:43;17.80;99.90
68387;DHT22;55338;43.062;25.624;2023-04-25T13:16:09;17.60;99.90
68387;DHT22;55338;43.062;25.624;2023-04-25T13:18:35;17.50;99.90
68387;DHT22;55338;43.062;25.624;2023-04-25T13:21:01;17.40;99.90
68387;DHT22;55338;43.062;25.624;2023-04-25T13:23:28;17.20;99.90
68387;DHT22;55338;43.062;25.624;2023-04-25T13:25:54;17.10;99.90
68387;DHT22;55338;43.062;25.624;2023-04-25T13:28:21;17.00;99.90
68387;DHT22;55338;43.062;25.624;2023-04-25T13:30:47;16.90;99.90
68387;DHT22;55338;43.062;25.624;2023-04-25T13:33:14;16.80;99.90
68387;DHT22;55338;43.062;25.624;2023-04-25T13:35:40;16.60;99.90
68387;DHT22;55338;43.062;25.624;2023-04-25T13:38:07;16.50;99.90
68387;DHT22;55338;43.062;25.624;2023-04-25T13:40:33;16.50;99.90
68387;DHT22;55338;43.062;25.624;2023-04-25T13:42:59;16.40;99.90
68387;DHT22;55338;43.062;25.624;2023-04-25T13:45:25;16.40;99.90
68387;DHT22;55338;43.062;25.624;2023-04-25T13:47:51;16.40;99.90
68387;DHT22;55338;43.062;25.624;2023-04-25T13:50:16;16.60;99.90
68387;DHT22;55338;43.062;25.624;2023-04-25T13:52:42;16.50;99.90
68387;DHT22;55338;43.062;25.624;2023-04-25T13:55:09;16.60;99.90
68387;DHT22;55338;43.062;25.624;2023-04-25T13:57:35;16.70;99.90
68387;DHT22;55338;43.062;25.624;2023-04-25T14:00:03;17.00;99.90
68387;DHT22;55338;43.062;25.624;2023-04-25T14:02:34;17.70;99.90
68387;DHT22;55338;43.062;25.624;2023-04-25T14:05:00;18.30;99.90
68387;DHT22;55338;43.062;25.624;2023-04-25T14:07:26;18.70;99.90
68387;DHT22;55338;43.062;25.624;2023-04-25T14:09:52;18.50;99.90
68387;DHT22;55338;43.062;25.624;2023-04-25T14:12:18;18.20;99.90
68387;DHT22;55338;43.062;25.624;2023-04-25T14:14:44;17.70;99.90
68387;DHT22;55338;43.062;25.624;2023-04-25T14:17:10;17.60;99.90
68387;DHT22;55338;43.062;25.624;2023-04-25T14:19:36;17.50;99.90
68387;DHT22;55338;43.062;25.624;2023-04-25T14:22:04;17.50;99.90
68387;DHT22;55338;43.062;25.624;2023-04-25T14:24:29;17.40;99.90
68387;DHT22;55338;43.062;25.624;2023-04-25T14:26:55;17.40;99.90
68387;DHT22;55338;43.062;25.624;2023-04-25T14:29:21;17.30;99.90
68387;DHT22;55338;43.062;25.624;2023-04-25T14:31:47;17.30;99.90
68387;DHT22;55338;43.062;25.624;2023-04-25T14:34:13;17.20;99.90
68387;DHT22;55338;43.062;25.624;2023-04-25T14:36:39;17.30;99.90
68387;DHT22;55338;43.062;25.624;2023-04-25T14:39:05;17.40;99.90
68387;DHT22;55338;43.062;25.624;2023-04-25T14:41:30;17.30;99.90
68387;DHT22;55338;43.062;25.624;2023-04-25T14:43:56;17.00;99.90
68387;DHT22;55338;43.062;25.624;2023-04-25T14:46:22;16.50;99.90
68387;DHT22;55338;43.062;25.624;2023-04-25T14:48:51;16.30;99.90
68387;DHT22;55338;43.062;25.624;2023-04-25T14:51:17;15.90;99.90
68387;DHT22;55338;43.062;25.624;2023-04-25T14:53:43;15.70;99.90
68387;DHT22;55338;43.062;25.624;2023-04-25T14:56:08;15.30;99.90
68387;DHT22;55338;43.062;25.624;2023-04-25T14:58:34;15.20;99.90
68387;DHT22;55338;43.062;25.624;2023-04-25T15:01:00;15.00;99.90
68387;DHT22;55338;43.062;25.624;2023-04-25T15:03:27;14.80;99.90
68387;DHT22;55338;43.062;25.624;2023-04-25T15:05:54;14.60;99.90
68387;DHT22;55338;43.062;25.624;2023-04-25T15:08:21;14.50;99.90
68387;DHT22;55338;43.062;25.624;2023-04-25T15:10:47;14.40;99.90
68387;DHT22;55338;43.062;25.624;2023-04-25T15:13:12;14.30;99.90
68387;DHT22;55338;43.062;25.624;2023-04-25T15:15:38;14.30;99.90
68387;DHT22;55338;43.062;25.624;2023-04-25T15:18:05;14.30;99.90
68387;DHT22;55338;43.062;25.624;2023-04-25T15:20:31;14.30;99.90
68387;DHT22;55338;43.062;25.624;2023-04-25T15:22:57;14.40;99.90
68387;DHT22;55338;43.062;25.624;2023-04-25T15:25:23;14.50;99.90
68387;DHT22;55338;43.062;25.624;2023-04-25T15:27:48;14.70;99.90
68387;DHT22;55338;43.062;25.624;2023-04-25T15:30:17;14.50;99.90